Time;durP1;ratioP1;P1;durP2;ratioP2;P2;SDS_P1;SDS_P2;PMS_P1;PMS_P2;Temp;Humidity;BMP_temperature;BMP_pressure;BME280_temperature;BME280_humidity;BME280_pressure;Samples;Min_cycle;Max_cycle;Signal;HPM_P1;HPM_P2
2020/12/02 00:01:22;;;;;;;28.10;14.30;;;8.50;94.40;;;;;;5060646;28;20025;-86
2020/12/02 00:03:56;;;;;;;26.02;14.05;;;8.50;94.40;;;;;;5077620;28;20082;-86
2020/12/02 00:06:24;;;;;;;24.52;14.02;;;8.50;94.40;;;;;;5074755;28;20021;-85
2020/12/02 00:08:57;;;;;;;23.83;12.93;;;8.50;94.40;;;;;;5047490;28;20041;-85
2020/12/02 00:11:23;;;;;;;26.05;14.75;;;8.50;94.50;;;;;;5058342;28;20040;-86
2020/12/02 00:13:49;;;;;;;27.42;14.10;;;8.50;94.50;;;;;;5054851;28;20028;-86
2020/12/02 00:16:23;;;;;;;25.20;13.25;;;8.50;94.50;;;;;;5067990;28;20052;-86
2020/12/02 00:18:51;;;;;;;24.60;13.38;;;8.50;94.50;;;;;;5055165;28;20465;-86
2020/12/02 00:21:18;;;;;;;24.88;13.68;;;8.50;94.50;;;;;;5054927;28;20029;-86
2020/12/02 00:23:45;;;;;;;27.00;14.68;;;8.50;94.50;;;;;;5057573;28;20067;-86
2020/12/02 00:26:14;;;;;;;22.67;13.38;;;8.50;94.40;;;;;;5074173;28;20087;-85
2020/12/02 00:28:40;;;;;;;25.75;13.55;;;8.50;94.40;;;;;;5054092;28;20028;-86
2020/12/02 00:31:06;;;;;;;28.92;15.60;;;8.50;94.40;;;;;;5062534;28;20025;-86
2020/12/02 00:33:32;;;;;;;24.58;14.32;;;8.50;94.30;;;;;;5060159;28;20111;-85
2020/12/02 00:35:57;;;;;;;27.02;13.88;;;8.50;94.30;;;;;;5057911;28;20047;-86
2020/12/02 00:38:24;;;;;;;27.83;14.23;;;8.50;94.30;;;;;;5056921;28;20033;-86
2020/12/02 00:40:51;;;;;;;22.38;12.68;;;8.50;94.40;;;;;;5060180;28;20025;-86
2020/12/02 00:43:20;;;;;;;21.13;12.82;;;8.50;94.40;;;;;;5060178;28;20040;-85
2020/12/02 00:45:46;;;;;;;23.75;12.63;;;8.50;94.40;;;;;;5074187;28;20024;-86
2020/12/02 00:48:16;;;;;;;26.98;14.20;;;8.50;94.40;;;;;;5057660;28;20039;-86
2020/12/02 00:50:42;;;;;;;26.02;14.13;;;8.50;94.40;;;;;;5064457;28;20021;-86
2020/12/02 00:53:29;;;;;;;25.73;13.00;;;8.40;94.40;;;;;;5051223;28;20044;-86
2020/12/02 00:55:55;;;;;;;25.65;13.07;;;8.50;94.40;;;;;;5054727;28;20025;-86
2020/12/02 00:58:21;;;;;;;26.27;13.82;;;8.40;94.40;;;;;;5067729;28;20100;-85
2020/12/02 01:00:47;;;;;;;24.90;14.40;;;8.40;94.40;;;;;;5064280;28;20020;-86
2020/12/02 01:03:25;;;;;;;23.70;13.65;;;8.40;94.40;;;;;;5058715;28;20090;-86
2020/12/02 01:05:52;;;;;;;26.38;14.50;;;8.40;94.40;;;;;;5074017;28;20081;-86
2020/12/02 01:08:26;;;;;;;25.50;14.23;;;8.40;94.30;;;;;;5072322;28;20027;-86
2020/12/02 01:11:11;;;;;;;26.40;13.38;;;8.40;94.30;;;;;;5053584;28;20032;-85
2020/12/02 01:13:38;;;;;;;25.92;14.00;;;8.40;94.30;;;;;;5068604;28;20090;-86
2020/12/02 01:16:10;;;;;;;26.88;14.32;;;8.40;94.40;;;;;;5061536;28;20088;-86
2020/12/02 01:18:35;;;;;;;24.67;13.52;;;8.40;94.40;;;;;;5057184;28;20025;-86
2020/12/02 01:21:27;;;;;;;24.83;13.50;;;8.40;94.40;;;;;;5059851;28;20028;-86
2020/12/02 01:24:01;;;;;;;26.92;13.27;;;8.40;94.40;;;;;;5044302;28;20087;-86
2020/12/02 01:26:33;;;;;;;26.70;14.27;;;8.40;94.40;;;;;;5063962;28;20094;-86
2020/12/02 01:29:02;;;;;;;25.08;13.82;;;8.40;94.30;;;;;;5073073;28;20441;-86
2020/12/02 01:31:28;;;;;;;25.52;13.73;;;8.40;94.30;;;;;;5073282;28;20063;-86
2020/12/02 01:33:55;;;;;;;26.13;14.15;;;8.30;94.30;;;;;;5066154;28;20543;-86
2020/12/02 01:36:51;;;;;;;24.23;14.02;;;8.30;94.40;;;;;;5061422;28;20031;-87
2020/12/02 01:39:17;;;;;;;26.83;13.50;;;8.30;94.40;;;;;;5068995;28;20480;-87
2020/12/02 01:41:43;;;;;;;26.35;13.82;;;8.30;94.30;;;;;;5045113;28;20024;-86
2020/12/02 01:44:10;;;;;;;30.13;14.75;;;8.40;94.40;;;;;;5053750;28;20774;-86
2020/12/02 01:47:05;;;;;;;22.98;12.88;;;8.30;94.30;;;;;;5069123;28;20021;-86
2020/12/02 01:49:50;;;;;;;26.20;13.63;;;8.30;94.60;;;;;;5071280;28;20028;-86
2020/12/02 01:52:31;;;;;;;24.05;12.63;;;8.30;94.30;;;;;;5072081;28;20040;-86
2020/12/02 01:55:00;;;;;;;25.05;13.77;;;8.30;94.40;;;;;;5052599;28;20083;-86
2020/12/02 01:57:32;;;;;;;26.83;13.95;;;8.30;94.40;;;;;;5064761;28;20024;-86
2020/12/02 02:00:15;;;;;;;25.35;13.90;;;8.30;94.40;;;;;;5065945;28;20024;-86
2020/12/02 02:02:40;;;;;;;28.05;14.25;;;8.30;94.40;;;;;;5053778;28;20024;-86
2020/12/02 02:05:12;;;;;;;28.15;15.32;;;8.30;94.40;;;;;;5072044;28;20482;-86
2020/12/02 02:07:39;;;;;;;25.95;14.60;;;8.30;94.30;;;;;;5062720;28;20029;-86
2020/12/02 02:10:21;;;;;;;27.88;14.18;;;8.30;94.40;;;;;;5065926;28;20028;-86
2020/12/02 02:13:18;;;;;;;28.73;13.65;;;8.30;94.30;;;;;;5054855;28;20139;-86
2020/12/02 02:15:49;;;;;;;23.80;12.32;;;8.30;94.30;;;;;;5058460;28;20021;-86
2020/12/02 02:18:21;;;;;;;23.33;12.60;;;8.30;94.40;;;;;;5052697;28;20024;-86
2020/12/02 02:20:51;;;;;;;23.42;13.50;;;8.30;94.40;;;;;;5066096;28;20056;-86
2020/12/02 02:23:18;;;;;;;27.45;13.80;;;8.30;94.40;;;;;;5058524;28;20116;-86
2020/12/02 02:26:03;;;;;;;23.02;13.10;;;8.30;94.30;;;;;;5072075;28;20113;-86
2020/12/02 02:28:31;;;;;;;23.08;12.82;;;8.30;94.40;;;;;;5071751;28;20039;-86
2020/12/02 02:30:57;;;;;;;23.23;12.55;;;8.30;94.40;;;;;;5072055;28;20044;-86
2020/12/02 02:33:24;;;;;;;27.38;14.15;;;8.30;94.40;;;;;;5072515;28;20064;-86
2020/12/02 02:35:50;;;;;;;24.48;12.93;;;8.30;94.30;;;;;;5053401;28;20087;-87
2020/12/02 02:38:19;;;;;;;26.20;13.70;;;8.30;94.40;;;;;;5063171;28;20017;-87
2020/12/02 02:40:46;;;;;;;26.33;12.90;;;8.30;94.30;;;;;;5043908;28;20029;-86
2020/12/02 02:43:12;;;;;;;24.58;13.18;;;8.30;94.30;;;;;;5053430;28;20069;-86
2020/12/02 02:45:38;;;;;;;22.55;11.70;;;8.30;94.30;;;;;;5035697;28;20085;-86
2020/12/02 02:48:06;;;;;;;22.25;12.73;;;8.30;94.40;;;;;;5036553;28;20111;-86
2020/12/02 02:50:33;;;;;;;22.65;12.23;;;8.30;94.40;;;;;;5041845;28;20029;-87
2020/12/02 02:53:00;;;;;;;23.13;12.20;;;8.30;94.40;;;;;;5058487;28;20016;-86
2020/12/02 03:03:14;;;;;;;28.50;13.45;;;8.30;94.40;;;;;;5015489;28;20062;-86
2020/12/02 03:05:40;;;;;;;24.20;12.60;;;8.30;94.60;;;;;;5016687;28;20092;-86
2020/12/02 03:08:09;;;;;;;25.83;13.52;;;8.30;94.40;;;;;;4989940;28;20374;-85
2020/12/02 03:10:40;;;;;;;24.80;12.80;;;8.30;94.40;;;;;;4985104;28;20054;-84
2020/12/02 03:13:40;;;;;;;23.13;12.65;;;8.30;94.40;;;;;;5000014;28;20032;-85
2020/12/02 03:16:32;;;;;;;22.92;11.65;;;8.30;94.40;;;;;;4937512;28;20038;-85
2020/12/02 03:19:13;;;;;;;23.45;12.02;;;8.30;94.40;;;;;;4998669;28;20525;-84
2020/12/02 03:21:38;;;;;;;;;;;8.30;94.40;;;;;;4998809;28;20076;-84
2020/12/02 03:24:06;;;;;;;24.10;12.10;;;8.30;94.40;;;;;;4982244;28;19917;-85
2020/12/02 03:26:32;;;;;;;27.58;13.20;;;8.30;94.40;;;;;;4998914;28;20084;-86
2020/12/02 03:28:58;;;;;;;26.40;13.25;;;8.30;94.30;;;;;;4979300;28;20517;-86
2020/12/02 03:31:24;;;;;;;29.35;13.88;;;8.30;94.40;;;;;;4968500;28;20097;-85
2020/12/02 03:33:50;;;;;;;27.55;13.93;;;8.30;94.30;;;;;;4980957;28;20033;-85
2020/12/02 03:36:17;;;;;;;30.88;15.60;;;8.20;94.30;;;;;;4969666;28;20064;-85
2020/12/02 03:38:44;;;;;;;25.30;12.77;;;8.20;94.30;;;;;;5015728;28;20057;-85
2020/12/02 03:41:11;;;;;;;28.67;13.77;;;8.30;94.30;;;;;;4962389;28;20133;-85
2020/12/02 03:43:36;;;;;;;28.48;13.38;;;8.20;94.30;;;;;;4972473;28;20034;-85
2020/12/02 03:46:02;;;;;;;28.58;13.20;;;8.20;94.30;;;;;;4977111;28;20029;-85
2020/12/02 03:48:28;;;;;;;29.95;14.40;;;8.20;94.30;;;;;;5015264;28;20359;-85
2020/12/02 03:50:54;;;;;;;26.92;14.00;;;8.30;94.30;;;;;;4983442;28;20084;-85
2020/12/02 03:53:20;;;;;;;27.20;13.98;;;8.20;94.20;;;;;;4977218;28;20054;-85
2020/12/02 03:55:47;;;;;;;28.05;14.85;;;8.20;94.20;;;;;;5014934;28;20026;-86
2020/12/02 03:58:12;;;;;;;26.33;13.45;;;8.20;94.20;;;;;;5015523;28;20116;-85
2020/12/02 04:00:38;;;;;;;27.83;14.10;;;8.20;94.20;;;;;;4981634;28;20478;-85
2020/12/02 04:03:05;;;;;;;28.38;13.80;;;8.20;94.20;;;;;;4993077;28;20149;-85
2020/12/02 04:05:30;;;;;;;31.27;14.82;;;8.20;94.30;;;;;;5005827;28;20072;-85
2020/12/02 04:07:56;;;;;;;29.33;14.18;;;8.20;94.20;;;;;;5013922;28;20060;-84
2020/12/02 04:10:22;;;;;;;29.30;14.48;;;8.20;94.30;;;;;;5013944;28;20030;-85
2020/12/02 04:12:47;;;;;;;29.38;13.35;;;8.20;94.30;;;;;;4997926;28;20433;-85
2020/12/02 04:15:15;;;;;;;25.67;13.90;;;8.20;94.30;;;;;;5014289;28;20036;-85
2020/12/02 04:17:41;;;;;;;29.50;13.85;;;8.20;94.30;;;;;;5001616;28;20030;-85
2020/12/02 04:20:07;;;;;;;27.02;12.65;;;8.20;94.30;;;;;;5015868;28;20807;-84
2020/12/02 04:22:33;;;;;;;30.15;14.35;;;8.10;94.30;;;;;;5023137;28;20474;-85
2020/12/02 04:24:59;;;;;;;28.13;14.02;;;8.20;94.30;;;;;;5011852;28;20038;-85
2020/12/02 04:27:25;;;;;;;25.27;13.57;;;8.20;94.30;;;;;;4997780;28;20033;-84
2020/12/02 04:29:50;;;;;;;28.63;13.35;;;8.20;94.40;;;;;;5014444;28;20034;-86
2020/12/02 04:32:16;;;;;;;29.02;13.07;;;8.20;94.40;;;;;;5014759;28;20029;-85
2020/12/02 04:34:42;;;;;;;27.70;13.20;;;8.20;94.30;;;;;;5014348;28;20112;-85
2020/12/02 04:37:08;;;;;;;30.05;13.60;;;8.20;94.30;;;;;;5032123;28;20030;-85
2020/12/02 04:39:33;;;;;;;28.65;13.30;;;8.20;94.30;;;;;;5004208;28;20670;-85
2020/12/02 04:41:59;;;;;;;31.40;14.20;;;8.20;94.30;;;;;;4977916;28;20060;-85
2020/12/02 04:44:25;;;;;;;29.95;12.73;;;8.20;94.30;;;;;;5014013;28;20037;-85
2020/12/02 04:46:56;;;;;;;26.85;13.07;;;8.20;94.30;;;;;;5013934;28;20030;-87
2020/12/02 04:49:32;;;;;;;33.92;15.43;;;8.20;94.30;;;;;;4982435;28;20033;-85
2020/12/02 04:52:04;;;;;;;33.88;15.27;;;8.10;94.20;;;;;;4994182;28;20435;-85
2020/12/02 04:54:30;;;;;;;30.38;15.23;;;8.20;94.20;;;;;;5007228;28;20019;-86
2020/12/02 04:56:56;;;;;;;29.17;13.52;;;8.10;94.20;;;;;;4985893;28;20081;-84
2020/12/02 04:59:37;;;;;;;25.52;12.63;;;8.10;94.20;;;;;;5002751;28;20179;-85
2020/12/02 05:02:03;;;;;;;28.73;12.75;;;8.10;94.30;;;;;;5014232;28;20046;-85
2020/12/02 05:04:29;;;;;;;29.70;13.43;;;8.10;94.30;;;;;;5018690;28;20406;-83
2020/12/02 05:07:04;;;;;;;27.30;12.73;;;8.20;94.30;;;;;;4999536;28;20033;-83
2020/12/02 05:09:31;;;;;;;28.88;12.85;;;8.10;94.20;;;;;;5015195;28;20520;-83
2020/12/02 05:12:20;;;;;;;24.88;12.50;;;8.10;94.20;;;;;;5001589;28;20030;-85
2020/12/02 05:14:47;;;;;;;23.63;11.30;;;8.10;94.20;;;;;;5014817;28;20034;-85
2020/12/02 05:17:29;;;;;;;27.52;12.20;;;8.10;94.30;;;;;;4981249;28;20486;-84
2020/12/02 05:20:08;;;;;;;25.27;10.82;;;8.10;94.20;;;;;;5010128;28;20033;-84
2020/12/02 05:22:37;;;;;;;24.15;11.43;;;8.10;94.30;;;;;;5013387;28;20022;-85
2020/12/02 05:25:04;;;;;;;22.52;10.48;;;8.10;94.30;;;;;;5012383;28;20473;-84
2020/12/02 05:27:33;;;;;;;24.40;11.82;;;8.00;94.30;;;;;;5013776;28;20084;-83
2020/12/02 05:30:24;;;;;;;20.73;10.23;;;8.10;94.30;;;;;;4999466;28;20026;-84
2020/12/02 05:33:17;;;;;;;23.67;11.48;;;8.00;94.30;;;;;;5000910;28;20026;-84
2020/12/02 05:35:47;;;;;;;19.58;9.65;;;8.00;94.30;;;;;;5011892;28;20018;-84
2020/12/02 05:38:26;;;;;;;25.60;10.97;;;8.00;94.30;;;;;;5014299;28;20029;-84
2020/12/02 05:40:55;;;;;;;24.30;10.98;;;8.00;94.20;;;;;;5000584;28;20469;-86
2020/12/02 05:43:39;;;;;;;20.42;9.80;;;8.00;94.20;;;;;;5012567;28;20068;-84
2020/12/02 05:46:11;;;;;;;21.55;10.77;;;8.00;94.20;;;;;;5008535;28;20032;-84
2020/12/02 05:48:41;;;;;;;22.83;10.90;;;8.00;94.20;;;;;;5005965;28;20030;-85
2020/12/02 05:51:19;;;;;;;24.35;11.73;;;8.00;94.20;;;;;;4994421;28;20058;-85
2020/12/02 05:53:55;;;;;;;23.20;10.45;;;8.00;94.30;;;;;;4992184;28;20470;-84
2020/12/02 05:56:20;;;;;;;32.92;13.77;;;8.00;94.30;;;;;;5008812;28;20096;-84
2020/12/02 05:58:46;;;;;;;33.22;13.05;;;7.90;94.20;;;;;;4992640;28;20026;-84
2020/12/02 06:01:15;;;;;;;28.38;12.75;;;8.00;94.20;;;;;;4982811;28;20026;-84
2020/12/02 06:03:41;;;;;;;31.88;14.70;;;8.00;94.20;;;;;;5012002;28;20026;-85
2020/12/02 06:06:12;;;;;;;38.50;15.48;;;8.00;94.20;;;;;;5010852;28;20513;-84
2020/12/02 06:08:41;;;;;;;35.25;14.27;;;8.00;94.10;;;;;;5011223;28;20017;-85
2020/12/02 06:11:16;;;;;;;33.58;13.63;;;8.00;94.20;;;;;;5013152;28;20029;-85
2020/12/02 06:13:48;;;;;;;29.98;12.38;;;7.90;94.20;;;;;;5023766;28;20485;-85
2020/12/02 06:16:47;;;;;;;28.23;11.95;;;7.90;94.20;;;;;;5010763;28;20026;-83
2020/12/02 06:19:16;;;;;;;23.85;11.57;;;7.90;94.20;;;;;;5010128;28;20030;-84
2020/12/02 06:21:56;;;;;;;27.70;12.30;;;7.90;94.20;;;;;;5013277;28;20014;-85
2020/12/02 06:24:39;;;;;;;28.27;11.82;;;7.90;94.20;;;;;;5013844;28;20030;-84
2020/12/02 06:27:14;;;;;;;24.63;10.60;;;7.90;94.20;;;;;;5013759;28;20389;-85
2020/12/02 06:29:41;;;;;;;24.15;11.05;;;7.90;94.30;;;;;;5012358;28;20486;-85
2020/12/02 06:32:22;;;;;;;28.27;12.75;;;8.00;94.30;;;;;;5007626;28;20038;-86
2020/12/02 06:34:49;;;;;;;26.27;11.60;;;7.90;94.20;;;;;;5005610;28;20030;-85
2020/12/02 06:37:22;;;;;;;22.27;9.98;;;7.90;94.20;;;;;;4994381;28;20420;-84
2020/12/02 06:39:54;;;;;;;28.75;10.63;;;7.90;94.30;;;;;;4992451;28;20497;-84
2020/12/02 06:42:22;;;;;;;22.27;9.93;;;7.90;94.30;;;;;;4997945;28;20022;-85
2020/12/02 06:45:01;;;;;;;22.50;9.95;;;8.00;94.30;;;;;;5007614;28;20156;-85
2020/12/02 06:47:28;;;;;;;23.73;10.18;;;7.90;94.30;;;;;;5009774;28;20369;-85
2020/12/02 06:50:02;;;;;;;24.98;11.18;;;7.90;94.30;;;;;;5013537;28;20033;-84
2020/12/02 06:52:31;;;;;;;21.63;10.40;;;7.90;94.20;;;;;;5011912;28;20030;-85
2020/12/02 06:55:12;;;;;;;21.65;9.80;;;7.90;94.20;;;;;;5012338;28;20032;-85
2020/12/02 06:57:38;;;;;;;22.58;10.05;;;7.90;94.20;;;;;;5012176;28;20026;-85
2020/12/02 07:00:11;;;;;;;22.23;10.70;;;7.90;94.20;;;;;;5002114;28;20033;-85
2020/12/02 07:02:42;;;;;;;22.52;10.32;;;7.90;94.20;;;;;;4996296;28;20050;-86
2020/12/02 07:05:18;;;;;;;22.58;10.70;;;7.90;94.20;;;;;;5000710;28;20390;-84
2020/12/02 07:07:44;;;;;;;25.30;11.57;;;7.90;94.20;;;;;;5009096;28;20022;-86
2020/12/02 07:10:21;;;;;;;24.58;10.82;;;7.90;94.20;;;;;;4990997;28;20030;-85
2020/12/02 07:12:47;;;;;;;24.20;11.57;;;7.90;94.20;;;;;;5008493;28;20026;-85
2020/12/02 07:15:14;;;;;;;26.17;11.05;;;7.90;94.20;;;;;;5003407;28;20093;-84
2020/12/02 07:17:41;;;;;;;29.13;11.00;;;7.90;94.20;;;;;;5005952;28;20084;-85
2020/12/02 07:20:14;;;;;;;23.38;11.05;;;7.90;94.20;;;;;;5011205;28;20028;-85
2020/12/02 07:22:55;;;;;;;26.67;11.60;;;7.90;94.30;;;;;;5010905;28;20389;-86
2020/12/02 07:25:23;;;;;;;25.35;12.07;;;7.90;94.50;;;;;;5012929;28;20030;-85
2020/12/02 07:27:50;;;;;;;28.20;12.07;;;7.90;94.30;;;;;;5011658;28;20025;-86
2020/12/02 07:30:30;;;;;;;23.02;9.90;;;7.90;94.20;;;;;;4999334;28;20036;-85
2020/12/02 07:32:55;;;;;;;24.05;11.32;;;7.90;94.30;;;;;;5008991;28;20018;-85
2020/12/02 07:35:23;;;;;;;23.15;10.40;;;7.90;94.30;;;;;;4988012;28;20022;-85
2020/12/02 07:38:04;;;;;;;22.73;10.25;;;7.90;94.30;;;;;;5001470;28;20046;-86
2020/12/02 07:40:35;;;;;;;24.02;10.25;;;7.90;94.30;;;;;;5015482;28;20064;-86
2020/12/02 07:43:03;;;;;;;27.40;11.73;;;7.90;94.30;;;;;;5006844;28;20022;-85
2020/12/02 07:45:33;;;;;;;21.38;10.93;;;7.90;94.30;;;;;;5012983;28;20038;-85
2020/12/02 07:48:05;;;;;;;27.40;10.80;;;7.90;94.30;;;;;;5032860;28;20791;-85
2020/12/02 07:50:46;;;;;;;18.48;9.00;;;7.90;94.30;;;;;;5024311;28;20028;-85
2020/12/02 07:53:24;;;;;;;19.38;10.10;;;7.90;94.30;;;;;;4995992;28;20061;-85
2020/12/02 07:55:52;;;;;;;22.55;10.27;;;7.90;94.30;;;;;;5007112;28;20022;-87
2020/12/02 07:58:28;;;;;;;20.05;10.02;;;7.90;94.20;;;;;;5013761;28;20497;-85
2020/12/02 08:00:57;;;;;;;24.90;9.93;;;7.90;94.20;;;;;;5015605;28;20026;-85
2020/12/02 08:03:34;;;;;;;20.33;10.13;;;7.90;94.20;;;;;;5009647;28;20046;-86
2020/12/02 08:06:27;;;;;;;17.77;9.18;;;7.90;94.20;;;;;;5006805;28;20014;-85
2020/12/02 08:08:53;;;;;;;19.25;9.35;;;7.90;94.20;;;;;;5012025;28;20030;-86
2020/12/02 08:11:19;;;;;;;15.93;8.30;;;7.90;94.20;;;;;;5004081;28;20018;-85
2020/12/02 08:13:51;;;;;;;18.20;8.35;;;7.90;94.20;;;;;;4990996;28;20092;-85
2020/12/02 08:16:22;;;;;;;18.67;8.50;;;7.80;94.20;;;;;;5012166;28;20034;-86
2020/12/02 08:18:54;;;;;;;21.00;9.77;;;7.90;94.20;;;;;;5005318;28;20030;-85
2020/12/02 08:21:23;;;;;;;16.23;8.90;;;7.90;94.20;;;;;;5003316;28;20025;-87
2020/12/02 08:24:13;;;;;;;20.75;9.27;;;7.80;94.20;;;;;;5006349;28;20037;-88
2020/12/02 08:26:42;;;;;;;16.08;8.30;;;7.80;94.20;;;;;;5008699;28;20466;-87
2020/12/02 08:29:11;;;;;;;21.40;9.93;;;7.80;94.20;;;;;;5001771;28;20026;-87
2020/12/02 08:31:38;;;;;;;19.33;9.48;;;7.80;94.20;;;;;;5006415;28;20540;-87
2020/12/02 08:34:23;;;;;;;18.45;8.90;;;7.90;94.20;;;;;;5007374;28;20057;-87
2020/12/02 08:37:11;;;;;;;19.15;8.88;;;7.90;94.20;;;;;;5000436;28;20025;-86
2020/12/02 08:39:38;;;;;;;18.13;8.77;;;7.80;94.20;;;;;;5000077;28;20027;-87
2020/12/02 08:42:04;;;;;;;17.45;8.73;;;7.90;94.20;;;;;;5011079;28;20044;-85
2020/12/02 08:44:30;;;;;;;17.73;9.32;;;7.80;94.10;;;;;;4983861;28;20478;-86
2020/12/02 08:47:02;;;;;;;18.25;8.75;;;7.80;94.10;;;;;;5013215;28;20037;-85
2020/12/02 08:49:33;;;;;;;19.00;9.25;;;7.80;94.10;;;;;;4997615;28;20462;-89
2020/12/02 08:51:59;;;;;;;16.77;9.00;;;7.80;94.10;;;;;;5005342;28;20038;-87
2020/12/02 08:54:25;;;;;;;19.10;9.45;;;7.80;94.10;;;;;;5004965;28;20041;-86
2020/12/02 08:57:01;;;;;;;21.00;9.75;;;7.80;94.10;;;;;;4996434;28;20111;-86
2020/12/02 08:59:27;;;;;;;17.23;8.82;;;7.80;94.10;;;;;;4996380;28;20037;-87
2020/12/02 09:02:00;;;;;;;16.30;8.93;;;7.80;94.10;;;;;;4986286;28;20057;-87
2020/12/02 09:04:26;;;;;;;18.45;9.00;;;7.80;94.10;;;;;;5003980;28;20045;-86
2020/12/02 09:06:51;;;;;;;17.30;8.68;;;7.80;94.10;;;;;;5010228;28;20108;-87
2020/12/02 09:09:17;;;;;;;19.83;9.52;;;7.80;94.10;;;;;;5003132;28;20038;-86
2020/12/02 09:11:42;;;;;;;16.38;8.55;;;7.80;94.20;;;;;;4999859;28;20370;-86
2020/12/02 09:14:08;;;;;;;17.90;8.80;;;7.80;94.10;;;;;;4989621;28;20032;-86
2020/12/02 09:16:39;;;;;;;14.93;8.40;;;7.80;94.10;;;;;;4993978;28;20033;-86
2020/12/02 09:19:08;;;;;;;17.80;9.18;;;7.90;94.20;;;;;;5002844;28;20057;-86
2020/12/02 09:21:34;;;;;;;15.80;9.27;;;7.90;94.10;;;;;;5002569;28;20030;-87
2020/12/02 09:24:00;;;;;;;15.25;7.90;;;7.90;94.40;;;;;;5004141;28;20104;-87
2020/12/02 09:26:33;;;;;;;16.20;8.70;;;7.90;94.20;;;;;;4999870;28;20535;-87
2020/12/02 09:29:00;;;;;;;20.13;8.50;;;7.90;94.10;;;;;;5002608;28;20529;-86
2020/12/02 09:31:27;;;;;;;19.15;9.75;;;7.90;94.10;;;;;;5003416;28;20508;-88
2020/12/02 09:33:53;;;;;;;17.02;9.40;;;7.90;94.10;;;;;;5009934;28;20033;-87
2020/12/02 09:36:20;;;;;;;17.92;9.90;;;7.90;94.10;;;;;;4984510;28;20385;-86
2020/12/02 09:38:47;;;;;;;15.07;8.82;;;7.90;94.10;;;;;;5012214;28;20108;-88
2020/12/02 09:41:54;;;;;;;16.10;8.45;;;7.90;94.10;;;;;;5006526;28;20023;-87
2020/12/02 09:44:41;;;;;;;16.95;9.63;;;7.90;94.10;;;;;;5012709;28;20022;-87
2020/12/02 09:47:07;;;;;;;21.00;10.60;;;7.90;94.10;;;;;;5010009;28;20062;-87
2020/12/02 09:49:33;;;;;;;18.85;9.63;;;7.90;94.00;;;;;;5006061;28;20018;-87
2020/12/02 09:52:26;;;;;;;15.77;9.23;;;7.90;94.00;;;;;;5002851;28;20462;-88
2020/12/02 09:54:52;;;;;;;17.15;8.95;;;7.90;94.10;;;;;;4993723;28;20486;-86
2020/12/02 09:57:24;;;;;;;20.52;10.35;;;7.90;94.10;;;;;;4970925;28;20033;-87
2020/12/02 09:59:50;;;;;;;17.25;9.43;;;7.90;94.10;;;;;;5007401;28;20037;-85
2020/12/02 10:02:27;;;;;;;16.60;9.15;;;7.90;94.10;;;;;;4983669;28;20064;-86
2020/12/02 10:05:28;;;;;;;17.98;9.85;;;7.90;94.10;;;;;;4997915;28;20088;-87
2020/12/02 10:08:12;;;;;;;;;;;7.90;94.10;;;;;;5000025;28;20029;-87
2020/12/02 10:10:48;;;;;;;20.08;9.55;;;7.90;94.20;;;;;;5002881;28;19968;-87
2020/12/02 10:13:44;;;;;;;16.48;9.80;;;7.90;94.10;;;;;;5005228;28;20022;-87
2020/12/02 10:16:29;;;;;;;16.27;8.77;;;7.90;94.10;;;;;;5007154;28;20022;-85
2020/12/02 10:19:21;;;;;;;18.15;10.10;;;7.90;94.20;;;;;;5010698;28;20033;-84
2020/12/02 10:22:14;;;;;;;18.95;9.35;;;7.90;94.20;;;;;;5003725;28;20022;-84
2020/12/02 10:25:02;;;;;;;19.98;9.27;;;7.90;94.20;;;;;;5008031;28;20032;-84
2020/12/02 10:27:38;;;;;;;17.67;9.50;;;7.90;94.20;;;;;;5002479;28;20500;-84
2020/12/02 10:30:19;;;;;;;17.65;9.20;;;7.90;94.20;;;;;;5020994;28;20135;-85
2020/12/02 10:33:19;;;;;;;20.30;9.15;;;7.90;94.20;;;;;;5010297;28;20079;-84
2020/12/02 10:35:47;;;;;;;23.33;10.05;;;7.90;94.20;;;;;;5007263;28;20182;-87
2020/12/02 10:38:33;;;;;;;25.90;10.98;;;7.90;94.20;;;;;;5003483;28;20125;-87
2020/12/02 10:41:16;;;;;;;21.80;9.88;;;7.90;94.10;;;;;;5011417;28;20032;-86
2020/12/02 10:44:02;;;;;;;18.50;9.80;;;7.90;94.10;;;;;;5002041;28;20039;-86
2020/12/02 10:46:52;;;;;;;30.77;15.05;;;7.90;94.20;;;;;;5005662;28;20084;-86
2020/12/02 10:49:29;;;;;;;27.20;12.73;;;7.90;93.90;;;;;;4997182;28;20030;-86
2020/12/02 10:51:58;;;;;;;26.40;12.50;;;7.90;94.00;;;;;;5007196;28;20027;-87
2020/12/02 10:54:34;;;;;;;22.58;11.77;;;7.80;94.00;;;;;;4987882;28;20037;-88
2020/12/02 10:57:06;;;;;;;23.50;11.15;;;7.90;94.10;;;;;;5002586;28;20026;-89
2020/12/02 10:59:31;;;;;;;21.30;10.43;;;7.90;94.10;;;;;;4995708;28;20077;-87
2020/12/02 11:01:57;;;;;;;21.52;10.90;;;7.90;94.10;;;;;;4992504;28;20058;-88
2020/12/02 11:04:23;;;;;;;22.38;11.05;;;7.90;94.10;;;;;;4993423;28;20035;-85
2020/12/02 11:07:21;;;;;;;21.02;10.32;;;7.90;94.10;;;;;;4993306;28;20031;-87
2020/12/02 11:09:59;;;;;;;25.98;11.05;;;7.90;94.10;;;;;;4968147;28;20135;-87
2020/12/02 11:12:58;;;;;;;26.98;12.95;;;7.90;94.10;;;;;;5002575;28;20521;-89
2020/12/02 11:15:33;;;;;;;31.95;13.55;;;7.90;94.10;;;;;;5020794;28;20026;-88
2020/12/02 11:18:21;;;;;;;32.88;14.50;;;7.80;94.10;;;;;;5004765;28;20030;-86
2020/12/02 11:21:28;;;;;;;39.28;17.13;;;7.80;94.10;;;;;;5002443;28;20493;-84
2020/12/02 11:23:56;;;;;;;29.55;13.43;;;7.80;93.90;;;;;;5002197;28;20029;-85
2020/12/02 11:26:35;;;;;;;28.15;13.00;;;7.80;94.10;;;;;;5008264;28;20088;-85
2020/12/02 11:29:04;;;;;;;28.27;13.65;;;7.80;94.10;;;;;;5003766;28;20070;-85
2020/12/02 11:31:38;;;;;;;26.75;12.82;;;7.80;94.10;;;;;;4994043;28;20022;-85
2020/12/02 11:34:23;;;;;;;29.27;13.20;;;7.80;94.10;;;;;;5015592;28;20077;-84
2020/12/02 11:37:01;;;;;;;24.77;12.32;;;7.80;94.10;;;;;;5008892;28;20093;-88
2020/12/02 11:39:32;;;;;;;25.77;12.07;;;7.80;94.20;;;;;;5015965;28;20465;-88
2020/12/02 11:42:15;;;;;;;34.80;15.23;;;7.80;94.20;;;;;;5019849;28;20026;-85
2020/12/02 11:44:55;;;;;;;39.63;16.70;;;7.80;94.00;;;;;;5004704;28;20470;-85
2020/12/02 11:47:35;;;;;;;38.75;16.80;;;7.80;93.80;;;;;;5002263;28;20037;-85
2020/12/02 11:50:32;;;;;;;36.10;15.90;;;7.80;93.90;;;;;;5016859;28;20022;-85
2020/12/02 11:53:27;;;;;;;37.75;16.50;;;7.80;94.00;;;;;;5016450;28;20021;-85
2020/12/02 11:55:53;;;;;;;31.50;13.02;;;7.80;94.00;;;;;;5005502;28;20050;-85
2020/12/02 11:58:18;;;;;;;43.47;17.23;;;7.80;94.10;;;;;;5004293;28;20041;-85
2020/12/02 12:00:44;;;;;;;38.88;15.98;;;7.70;94.00;;;;;;5024588;28;20042;-85
2020/12/02 12:03:17;;;;;;;34.15;14.23;;;7.70;94.00;;;;;;5027191;28;20065;-86
2020/12/02 12:05:52;;;;;;;33.50;13.65;;;7.70;94.10;;;;;;5027532;28;20100;-86
2020/12/02 12:08:33;;;;;;;35.28;13.82;;;7.80;94.20;;;;;;5042475;28;20014;-85
2020/12/02 12:11:03;;;;;;;49.70;18.90;;;7.80;94.10;;;;;;5029727;28;20030;-85
2020/12/02 12:13:48;;;;;;;50.58;21.45;;;7.80;94.00;;;;;;5024620;28;20022;-86
2020/12/02 12:16:40;;;;;;;52.83;22.42;;;7.80;93.80;;;;;;5032747;28;20522;-86
2020/12/02 12:19:27;;;;;;;51.30;20.00;;;7.70;93.70;;;;;;5042161;28;20056;-85
2020/12/02 12:22:26;;;;;;;46.05;19.67;;;7.70;93.80;;;;;;5034041;28;20056;-86
2020/12/02 12:24:55;;;;;;;42.67;18.00;;;7.60;93.90;;;;;;5023945;28;20030;-84
2020/12/02 12:27:22;;;;;;;39.83;15.52;;;7.70;94.20;;;;;;5030008;28;20031;-85
2020/12/02 12:29:47;;;;;;;46.65;17.40;;;7.70;94.00;;;;;;4985665;28;20042;-86
2020/12/02 12:32:39;;;;;;;50.25;18.30;;;7.70;94.30;;;;;;4979579;28;20121;-87
2020/12/02 12:35:06;;;;;;;;;;;7.70;93.90;;;;;;5009934;28;20034;-86
2020/12/02 12:37:32;;;;;;;55.03;21.40;;;7.70;93.80;;;;;;5013569;28;19953;-86
2020/12/02 12:40:03;;;;;;;51.20;20.13;;;7.70;93.90;;;;;;5016996;28;20095;-86
2020/12/02 12:42:30;;;;;;;43.50;18.73;;;7.70;94.00;;;;;;5011697;28;20061;-87
2020/12/02 12:45:02;;;;;;;45.90;18.42;;;7.70;94.10;;;;;;4998489;28;20052;-86
2020/12/02 12:47:27;;;;;;;;;;;7.70;94.10;;;;;;5011809;28;20038;-87
2020/12/02 12:49:56;;;;;;;43.10;18.33;;;7.70;94.00;;;;;;5004581;28;19913;-85
2020/12/02 12:52:29;;;;;;;39.28;16.08;;;7.70;94.10;;;;;;5006097;28;20495;-86
2020/12/02 12:54:55;;;;;;;32.42;14.23;;;7.70;94.10;;;;;;5014347;28;20089;-87
2020/12/02 12:57:23;;;;;;;44.88;17.23;;;7.70;94.20;;;;;;5028905;28;20497;-86
2020/12/02 13:00:04;;;;;;;38.17;15.93;;;7.70;94.10;;;;;;5025016;28;20032;-86
2020/12/02 13:02:36;;;;;;;50.20;18.85;;;7.80;94.10;;;;;;5032750;28;20045;-87
2020/12/02 13:05:02;;;;;;;44.00;17.83;;;7.80;94.00;;;;;;5023885;28;20078;-86
2020/12/02 13:07:37;;;;;;;41.38;17.83;;;7.70;94.10;;;;;;5012109;28;20049;-88
2020/12/02 13:10:21;;;;;;;42.60;18.65;;;7.70;94.00;;;;;;5028722;28;20014;-86
2020/12/02 13:12:58;;;;;;;39.53;17.88;;;7.70;94.00;;;;;;5026195;28;20433;-86
2020/12/02 13:15:32;;;;;;;45.85;16.85;;;7.70;94.00;;;;;;5024842;28;20041;-88
2020/12/02 13:18:21;;;;;;;37.47;15.32;;;7.70;94.00;;;;;;5031966;28;20030;-89